Melrose, NM

1:38 PM MDT on September 17, 2014 (GMT -0600)
Tucumcari Municipal | Change Station
CLOSE
Current Station
Airport
Location: Tucumcari,
Elevation: 4065 ft
Nearby Weather Stations

Elev 4065 ft 35.18 °N, 103.60 °W | Updated 45 minutes ago

Rain
Rain
76 °F
Feels Like 76 °F
N
20
Wind Variable Wind from SSW

Today
High -- | Low -- °F
--% Chance of Precip.
Yesterday
High -- | Low -- °F
Precip. -- in
6:39 AM 6:58 PM
Waning Crescent, 33% visible
Pressure 29.93 in
Visibility 10.0 miles
Clouds Clear
Dew Point 59 °F
Humidity 56%
Rainfall 0.00 in
Snow Depth 0 in , 0 in , 1 in
UV 10 out of 12
Pollen 6.00 out of 12
Air Quality Not available.
Flu Activity Not available.
METAR KTCC 171853Z AUTO 20017KT 10SM CLR 24/15 A3008 RMK AO2 SLP133 T02440150

More Conditions Fewer Conditions

Pressure 29.93 in
Visibility 10.0 miles
Clouds Clear
Dew Point 59 °F
Humidity 56%
Rainfall 0.00 in
Snow Depth 0 in , 0 in , 1 in
UV 10 out of 12
Pollen 6.00 out of 12
Air Quality Not available.
Flu Activity Not available.
METAR KTCC 171853Z AUTO 20017KT 10SM CLR 24/15 A3008 RMK AO2 SLP133 T02440150

More Conditions Fewer Conditions

Nowcast | as of 11:54 am MDT on September 17, 2014

A broad area of light rain...with embedded heavier rain...will continue to stretch both north and south of Interstate 40 this this afternoon. The steadiest rain will be from the Sandia and Manzano Mountains east to the Texas boarder. This includes Manzano... Estancia...Encino...Pastura...Puerto de Luna...house...Ragland... Melrose...Ranchvale...Clovis and Broadview. Rainfall amounts in these areas may range from a quarter to three quarters of an inch with local amounts around one inch. Elsewhere expect another one tenth to around one quarter of an inch. Motorists should be alert to ponding of water on roadways and watch for fast flowing water over low water crossings. Patchy fog may limit visibilities at times. The area of rain will drift slowly north and east through the morning.

×

10-Day Weather Forecast

Almanac

Astronomy

Sep. 17, 2014 Rise Set
Actual Time 6:39 AM MDT 6:58 PM MDT
Civil Twilight 6:13 AM MDT 7:23 PM MDT
Nautical Twilight 5:44 AM MDT 7:53 PM MDT
Astronomical Twilight 5:14 AM MDT 8:22 PM MDT
Moon 12:51 AM MDT 2:59 PM MDT
Length of Visible Light 13h 09m
Length of Day
12h 19m
Tomorrow will be 2m 9s shorter.
Waning Crescent, 33% of the Moon is Illuminated
Today
Waning Crescent
Sep 24
New
Oct 1
First Quarter
Oct 8
Full
Oct 15
Last Quarter

Today's Extremes

State Highs State Lows

Community

WunderPhotos

Upload Photos

1,754,139 photos uploaded!

Nearby

Snow Depth

Station Depth Elevation
McKnight Cabin 0 in 9240 ft
Quemazon 0 in 9500 ft
Silver Creek Divide 1 in 9000 ft
Elk Cabin 142 in 8210 ft
North Costilla 0 in 10600 ft

Earthquake Activity

City Distance Mag. Time & Date
No recent earthquake activity has been reported nearby.
Minimum magnitude displayed is 2.5.

Coastal Water Temperatures

Place Temperature
No Stations Reporting

Nearby Weather Stations